KFIG

Clearfield-Lawrence Airport

Clearfield, Pennsylvania, USA
METAR KFIG 140426Z AUTO 25007KT 230V290 10SM SCT028 BKN033 OVC042 M01/M05 A3023 RMK AO2 T10061050
Observed Flight Rules
Nov-14 @ 04:26 UTC (23 minutes ago) Visual Flight Rules
Wind Visibility Clouds
250° at 7 knots 10 miles
  • Scattered at 2,800' AGL
  • Broken at 3,300' AGL
  • Overcast at 4,200' AGL
Temperatures Readings
Current -1°C / 30°F
Dewpoint -5°C / 23°F
Humidity 75%
Altimeter 30.23" Hg
Pressure 1024 hPa
Elevation 462
METAR KFIG 140426Z AUTO 25007KT 230V290 10SM SCT028 BKN033 OVC042 M01/M05 A3023 RMK AO2 T10061050
Observed Flight Rules
Nov-14 @ 04:26 UTC
(23 minutes ago)
VFR
Wind Visibility
250° at 7 knots 10 miles
Clouds
  • Scattered at 2,800' AGL
  • Broken at 3,300' AGL
  • Overcast at 4,200' AGL
Temperature Dewpoint
-1°C / 30°F -5°C / 23°F
Humidity Altimeter Pressure
75% 30.23" Hg 1024 hPa